createdAt,value
2022-08-08T00:03:20.042Z,3.20
2022-08-08T00:06:08.465Z,3.17
2022-08-08T00:09:16.176Z,3.33
2022-08-08T00:12:07.708Z,3.10
2022-08-08T00:15:09.562Z,3.40
2022-08-08T00:18:01.884Z,3.33
2022-08-08T00:20:50.387Z,3.22
2022-08-08T00:23:28.339Z,3.10
2022-08-08T00:26:13.107Z,3.10
2022-08-08T00:28:45.627Z,3.20
2022-08-08T00:32:15.587Z,3.53
2022-08-08T00:34:56.956Z,3.38
2022-08-08T00:38:01.779Z,3.58
2022-08-08T00:41:11.395Z,3.53
2022-08-08T00:43:29.711Z,3.13
2022-08-08T00:46:57.015Z,3.03
2022-08-08T00:49:27.360Z,3.28
2022-08-08T00:52:20.254Z,3.10
2022-08-08T00:55:16.759Z,3.72
2022-08-08T00:58:17.379Z,3.20
2022-08-08T01:00:53.550Z,3.25
2022-08-08T01:04:01.459Z,3.08
2022-08-08T01:06:52.291Z,3.20
2022-08-08T01:09:41.327Z,2.50
2022-08-08T01:12:29.538Z,3.08
2022-08-08T01:15:43.436Z,3.63
2022-08-08T01:18:53.544Z,3.03
2022-08-08T01:22:01.722Z,3.25
2022-08-08T01:24:37.637Z,3.63
2022-08-08T01:27:32.693Z,3.05
2022-08-08T01:30:33.791Z,3.50
2022-08-08T01:33:23.510Z,3.80
2022-08-08T01:36:22.995Z,4.07
2022-08-08T01:39:04.175Z,3.42
2022-08-08T01:41:34.236Z,3.38
2022-08-08T01:44:19.482Z,3.63
2022-08-08T01:46:55.325Z,3.40
2022-08-08T01:49:40.990Z,3.67
2022-08-08T01:54:19.330Z,3.70
2022-08-08T01:56:26.988Z,3.50
2022-08-08T01:58:52.637Z,3.78
2022-08-08T02:02:00.153Z,3.58
2022-08-08T02:04:50.970Z,3.33
2022-08-08T02:07:41.857Z,3.63
2022-08-08T02:10:49.236Z,3.50
2022-08-08T02:13:54.891Z,3.20
2022-08-08T02:16:40.651Z,3.40
2022-08-08T02:19:41.650Z,3.55
2022-08-08T02:22:31.590Z,3.45
2022-08-08T02:25:21.724Z,3.47
2022-08-08T02:28:00.986Z,3.22
2022-08-08T02:30:58.301Z,3.20
2022-08-08T02:34:00.732Z,3.35
2022-08-08T02:36:38.724Z,3.30
2022-08-08T02:39:40.596Z,3.42
2022-08-08T02:42:43.926Z,3.60
2022-08-08T02:45:51.464Z,3.03
2022-08-08T02:48:45.326Z,3.63
2022-08-08T02:51:46.580Z,3.70
2022-08-08T02:54:28.350Z,3.33
2022-08-08T02:56:55.104Z,3.30
2022-08-08T03:00:26.903Z,3.42
2022-08-08T03:05:32.804Z,3.42
2022-08-08T03:08:17.308Z,3.72
2022-08-08T03:11:25.978Z,3.42
2022-08-08T03:15:57.290Z,3.25
2022-08-08T03:17:39.061Z,3.28
2022-08-08T03:20:08.049Z,3.78
2022-08-08T03:22:46.147Z,3.40
2022-08-08T03:25:18.619Z,3.45
2022-08-08T03:27:56.624Z,3.25
2022-08-08T03:30:24.433Z,3.10
2022-08-08T03:33:54.735Z,3.38
2022-08-08T03:35:57.821Z,3.53
2022-08-08T03:38:57.202Z,3.40
2022-08-08T03:42:04.054Z,3.70
2022-08-08T03:43:59.623Z,3.38
2022-08-08T03:46:32.579Z,3.63
2022-08-08T03:51:51.358Z,3.08
2022-08-08T03:54:51.641Z,3.70
2022-08-08T03:58:30.986Z,3.17
2022-08-08T04:00:07.723Z,3.77
2022-08-08T04:02:47.679Z,3.40
2022-08-08T04:05:22.797Z,3.05
2022-08-08T04:07:56.390Z,3.35
2022-08-08T04:10:25.507Z,3.60
2022-08-08T04:12:59.649Z,3.10
2022-08-08T04:15:30.466Z,3.08
2022-08-08T04:18:05.274Z,3.40
2022-08-08T04:20:32.228Z,2.95
2022-08-08T04:22:59.086Z,3.28
2022-08-08T04:25:32.898Z,3.20
2022-08-08T04:28:36.134Z,3.17
2022-08-08T04:30:52.005Z,2.83
2022-08-08T04:33:22.289Z,3.17
2022-08-08T04:35:51.170Z,3.03
2022-08-08T04:38:21.721Z,3.33
2022-08-08T04:40:51.716Z,2.72
2022-08-08T04:43:22.432Z,3.33
2022-08-08T04:45:59.341Z,2.97
2022-08-08T04:48:26.175Z,2.92
2022-08-08T04:50:53.257Z,3.40
2022-08-08T04:54:27.512Z,2.83
2022-08-08T04:56:07.425Z,2.97
2022-08-08T04:58:34.364Z,2.67
2022-08-08T05:01:08.862Z,2.58
2022-08-08T05:04:10.002Z,2.60
2022-08-08T05:06:29.018Z,2.58
2022-08-08T05:08:56.127Z,2.58
2022-08-08T05:11:29.301Z,2.40
2022-08-08T05:14:06.082Z,2.42
2022-08-08T05:16:52.615Z,2.22
2022-08-08T05:20:11.423Z,2.45
2022-08-08T05:22:08.261Z,2.75
2022-08-08T05:24:37.376Z,2.20
2022-08-08T05:27:05.063Z,2.60
2022-08-08T05:29:31.909Z,2.45
2022-08-08T05:32:06.207Z,1.98
2022-08-08T05:34:47.671Z,2.53
2022-08-08T05:37:39.505Z,2.28
2022-08-08T05:40:14.819Z,2.13
2022-08-08T05:42:44.815Z,2.13
2022-08-08T05:45:31.318Z,2.20
2022-08-08T05:48:08.286Z,2.20
2022-08-08T05:50:36.301Z,2.30
2022-08-08T05:53:53.863Z,1.92
2022-08-08T05:56:11.116Z,1.80
2022-08-08T05:58:37.315Z,2.13
2022-08-08T06:01:04.979Z,3.22
2022-08-08T06:03:31.944Z,2.00
2022-08-08T06:06:05.230Z,2.28
2022-08-08T06:08:54.632Z,2.08
2022-08-08T06:11:22.387Z,2.00
2022-08-08T06:13:55.167Z,2.03
2022-08-08T06:16:27.580Z,2.08
2022-08-08T06:18:58.237Z,2.28
2022-08-08T06:21:28.269Z,2.00
2022-08-08T06:24:02.608Z,2.42
2022-08-08T06:26:45.594Z,1.90
2022-08-08T06:29:59.124Z,1.88
2022-08-08T06:32:17.253Z,1.90
2022-08-08T06:34:56.316Z,2.20
2022-08-08T06:37:37.481Z,1.90
2022-08-08T06:40:06.350Z,1.90
2022-08-08T06:42:37.130Z,2.10
2022-08-08T06:45:05.526Z,2.05
2022-08-08T06:47:52.307Z,2.40
2022-08-08T06:50:32.256Z,2.30
2022-08-08T06:53:09.599Z,1.98
2022-08-08T06:55:41.786Z,2.20
2022-08-08T06:58:08.871Z,1.80
2022-08-08T07:00:36.605Z,1.80
2022-08-08T07:03:51.592Z,1.55
2022-08-08T07:06:02.175Z,1.90
2022-08-08T07:08:38.667Z,2.17
2022-08-08T07:11:07.625Z,2.28
2022-08-08T07:13:39.262Z,2.20
2022-08-08T07:16:51.188Z,2.13
2022-08-08T07:20:00.494Z,2.00
2022-08-08T07:22:34.321Z,2.15
2022-08-08T07:25:02.364Z,1.85
2022-08-08T07:28:01.818Z,2.25
2022-08-08T07:30:25.691Z,2.38
2022-08-08T07:32:53.493Z,2.20
2022-08-08T07:35:20.350Z,1.98
2022-08-08T07:38:04.474Z,1.85
2022-08-08T07:40:34.218Z,2.03
2022-08-08T07:43:02.588Z,1.92
2022-08-08T07:45:34.366Z,2.10
2022-08-08T07:48:02.952Z,2.22
2022-08-08T07:50:34.877Z,2.33
2022-08-08T07:53:07.579Z,1.85
2022-08-08T07:55:36.382Z,2.22
2022-08-08T07:58:42.146Z,2.38
2022-08-08T08:01:12.367Z,2.28
2022-08-08T08:03:45.493Z,2.45
2022-08-08T08:06:14.746Z,2.30
2022-08-08T08:08:51.978Z,1.98
2022-08-08T08:11:21.406Z,2.20
2022-08-08T08:14:08.165Z,2.00
2022-08-08T08:16:41.119Z,2.17
2022-08-08T08:19:12.826Z,2.10
2022-08-08T08:21:57.328Z,1.90
2022-08-08T08:24:30.595Z,1.80
2022-08-08T08:26:59.666Z,2.58
2022-08-08T08:29:29.737Z,2.50
2022-08-08T08:31:59.100Z,2.08
2022-08-08T08:34:32.266Z,2.22
2022-08-08T08:37:03.483Z,2.30
2022-08-08T08:40:00.315Z,2.60
2022-08-08T08:42:31.866Z,2.20
2022-08-08T08:45:20.813Z,2.10
2022-08-08T08:47:48.972Z,2.92
2022-08-08T08:50:33.389Z,2.90
2022-08-08T08:53:55.168Z,2.90
2022-08-08T08:56:01.892Z,2.13
2022-08-08T08:58:56.014Z,2.10
2022-08-08T09:01:27.520Z,2.08
2022-08-08T09:03:59.694Z,2.05
2022-08-08T09:06:33.400Z,2.10
2022-08-08T09:09:26.344Z,1.98
2022-08-08T09:12:01.547Z,2.33
2022-08-08T09:14:34.018Z,2.38
2022-08-08T09:17:04.147Z,2.40
2022-08-08T09:22:00.534Z,2.50
2022-08-08T09:22:26.639Z,2.42
2022-08-08T09:24:55.114Z,3.33
2022-08-08T09:27:23.026Z,2.70
2022-08-08T09:30:11.361Z,2.35
2022-08-08T09:33:11.884Z,2.10
2022-08-08T09:35:49.863Z,2.35
2022-08-08T09:38:52.984Z,2.20
2022-08-08T09:41:33.600Z,2.22
2022-08-08T09:44:15.183Z,2.60
2022-08-08T09:46:57.700Z,2.05
2022-08-08T09:49:42.164Z,2.30
2022-08-08T09:52:56.187Z,2.70
2022-08-08T09:55:07.097Z,2.53
2022-08-08T09:57:45.995Z,2.70
2022-08-08T10:00:35.772Z,2.78
2022-08-08T10:03:01.547Z,2.47
2022-08-08T10:05:31.316Z,2.75
2022-08-08T10:08:01.075Z,2.88
2022-08-08T10:10:36.805Z,2.80
2022-08-08T10:13:26.163Z,2.55
2022-08-08T10:16:01.921Z,2.58
2022-08-08T10:18:34.771Z,3.00
2022-08-08T10:21:23.215Z,2.85
2022-08-08T10:23:58.278Z,3.42
2022-08-08T10:26:40.524Z,3.22
2022-08-08T10:29:22.962Z,3.13
2022-08-08T10:32:08.593Z,3.33
2022-08-08T10:34:36.334Z,3.60
2022-08-08T10:37:04.670Z,3.20
2022-08-08T10:39:43.493Z,3.35
2022-08-08T10:42:20.742Z,3.65
2022-08-08T10:44:49.531Z,4.50
2022-08-08T10:47:20.682Z,3.90
2022-08-08T10:50:00.348Z,4.72
2022-08-08T10:52:39.955Z,4.45
2022-08-08T10:55:15.418Z,4.57
2022-08-08T10:58:05.671Z,5.13
2022-08-08T11:00:35.597Z,5.53
2022-08-08T11:03:15.984Z,5.70
2022-08-08T11:05:51.623Z,5.95
2022-08-08T11:08:40.874Z,6.30
2022-08-08T11:11:32.771Z,4.80
2022-08-08T11:14:01.066Z,4.70
2022-08-08T11:16:31.948Z,5.00
2022-08-08T11:19:23.692Z,5.50
2022-08-08T11:21:53.871Z,4.57
2022-08-08T11:24:20.872Z,4.45
2022-08-08T11:26:53.782Z,4.38
2022-08-08T11:29:23.952Z,4.57
2022-08-08T11:32:09.373Z,4.70
2022-08-08T11:34:58.996Z,4.43
2022-08-08T11:38:36.629Z,4.30
2022-08-08T11:40:14.439Z,4.47
2022-08-08T11:42:42.642Z,4.82
2022-08-08T11:45:10.644Z,4.22
2022-08-08T11:48:04.414Z,4.43
2022-08-08T11:50:32.354Z,5.22
2022-08-08T11:53:01.029Z,5.20
2022-08-08T11:55:36.374Z,5.13
2022-08-08T11:58:15.105Z,4.80
2022-08-08T12:00:50.661Z,5.20
2022-08-08T12:03:21.187Z,4.75
2022-08-08T12:05:48.415Z,4.30
2022-08-08T12:08:15.175Z,5.00
2022-08-08T12:10:52.221Z,4.68
2022-08-08T12:13:38.019Z,4.88
2022-08-08T12:16:17.473Z,4.85
2022-08-08T12:19:02.454Z,4.45
2022-08-08T12:22:00.685Z,4.45
2022-08-08T12:24:21.520Z,4.13
2022-08-08T12:26:58.489Z,4.05
2022-08-08T12:29:41.984Z,4.10
2022-08-08T12:32:19.915Z,4.13
2022-08-08T12:35:04.216Z,3.97
2022-08-08T12:37:43.175Z,4.18
2022-08-08T12:40:23.066Z,3.55
2022-08-08T12:42:51.287Z,3.75
2022-08-08T12:45:59.969Z,3.90
2022-08-08T12:48:38.219Z,3.50
2022-08-08T12:51:06.075Z,3.60
2022-08-08T12:53:46.810Z,3.13
2022-08-08T12:56:18.916Z,4.07
2022-08-08T12:58:51.747Z,3.25
2022-08-08T13:01:24.431Z,3.63
2022-08-08T13:04:01.480Z,3.67
2022-08-08T13:06:28.266Z,3.50
2022-08-08T13:08:56.890Z,3.63
2022-08-08T13:12:34.209Z,3.00
2022-08-08T13:14:20.213Z,3.65
2022-08-08T13:16:49.436Z,3.55
2022-08-08T13:19:20.175Z,4.10
2022-08-08T13:21:53.610Z,3.40
2022-08-08T13:24:42.507Z,3.15
2022-08-08T13:27:17.917Z,4.07
2022-08-08T13:29:55.726Z,3.28
2022-08-08T13:32:25.249Z,3.88
2022-08-08T13:34:54.149Z,4.18
2022-08-08T13:37:51.745Z,3.38
2022-08-08T13:40:08.527Z,3.63
2022-08-08T13:42:35.615Z,3.67
2022-08-08T13:45:02.393Z,3.92
2022-08-08T13:47:31.454Z,3.42
2022-08-08T13:50:43.269Z,3.50
2022-08-08T13:52:48.948Z,3.47
2022-08-08T13:55:29.411Z,3.28
2022-08-08T13:58:07.837Z,3.03
2022-08-08T14:00:45.094Z,2.90
2022-08-08T14:03:53.759Z,3.40
2022-08-08T14:06:20.564Z,3.40
2022-08-08T14:08:57.124Z,3.33
2022-08-08T14:11:25.807Z,3.40
2022-08-08T14:13:59.726Z,3.35
2022-08-08T14:16:27.252Z,3.05
2022-08-08T14:18:58.323Z,2.97
2022-08-08T14:21:48.972Z,3.08
2022-08-08T14:24:32.160Z,2.60
2022-08-08T14:26:58.923Z,3.42
2022-08-08T14:29:30.553Z,2.97
2022-08-08T14:32:08.734Z,2.67
2022-08-08T14:34:42.777Z,2.83
2022-08-08T14:37:10.162Z,2.92
2022-08-08T14:39:49.529Z,2.95
2022-08-08T14:42:24.912Z,3.63
2022-08-08T14:44:57.766Z,2.97
2022-08-08T14:47:27.247Z,2.88
2022-08-08T14:50:16.053Z,3.25
2022-08-08T14:53:00.268Z,2.83
2022-08-08T14:55:41.594Z,3.28
2022-08-08T14:58:11.803Z,2.88
2022-08-08T15:00:44.473Z,2.97
2022-08-08T15:03:16.279Z,3.03
2022-08-08T15:05:53.261Z,3.03
2022-08-08T15:08:35.253Z,2.85
2022-08-08T15:11:07.453Z,3.17
2022-08-08T15:13:40.965Z,2.72
2022-08-08T15:16:23.704Z,2.42
2022-08-08T15:18:51.791Z,2.38
2022-08-08T15:21:20.788Z,2.47
2022-08-08T15:23:50.866Z,2.70
2022-08-08T15:26:20.198Z,2.60
2022-08-08T15:28:53.372Z,2.70
2022-08-08T15:31:26.118Z,2.67
2022-08-08T15:34:08.603Z,2.83
2022-08-08T15:36:47.455Z,2.58
2022-08-08T15:39:14.667Z,3.40
2022-08-08T15:41:44.086Z,2.60
2022-08-08T15:44:13.903Z,2.58
2022-08-08T15:46:45.143Z,2.55
2022-08-08T15:49:12.596Z,2.75
2022-08-08T15:51:43.727Z,2.35
2022-08-08T15:54:37.653Z,2.88
2022-08-08T15:56:57.452Z,2.70
2022-08-08T16:00:26.365Z,2.40
2022-08-08T16:02:13.407Z,2.70
2022-08-08T16:04:42.393Z,2.33
2022-08-08T16:07:09.469Z,3.22
2022-08-08T16:13:14.323Z,2.83
2022-08-08T16:13:14.406Z,2.78
2022-08-08T16:15:12.506Z,2.25
2022-08-08T16:20:30.134Z,2.10
2022-08-08T16:22:57.194Z,2.58
2022-08-08T16:25:24.372Z,2.40
2022-08-08T16:28:34.334Z,2.47
2022-08-08T16:30:58.450Z,2.25
2022-08-08T16:33:38.577Z,2.10
2022-08-08T16:36:08.857Z,2.45
2022-08-08T16:38:40.744Z,2.25
2022-08-08T16:41:18.333Z,1.90
2022-08-08T16:43:50.912Z,2.65
2022-08-08T16:46:44.817Z,2.17
2022-08-08T16:49:08.081Z,2.47
2022-08-08T16:55:18.391Z,2.10
2022-08-08T16:55:22.927Z,2.47
2022-08-08T16:58:11.961Z,2.60
2022-08-08T17:00:04.363Z,2.00
2022-08-08T17:02:44.632Z,2.30
2022-08-08T17:05:13.006Z,2.28
2022-08-08T17:07:42.015Z,2.13
2022-08-08T17:10:19.150Z,2.20
2022-08-08T17:12:47.087Z,2.28
2022-08-08T17:15:24.701Z,2.10
2022-08-08T17:18:04.221Z,2.03
2022-08-08T17:20:38.121Z,1.88
2022-08-08T17:23:24.040Z,2.58
2022-08-08T17:25:55.538Z,2.20
2022-08-08T17:28:34.349Z,2.08
2022-08-08T17:31:39.626Z,2.20
2022-08-08T17:34:35.731Z,2.50
2022-08-08T17:36:53.775Z,2.30
2022-08-08T17:40:04.696Z,2.22
2022-08-08T17:42:13.105Z,2.05
2022-08-08T17:44:44.023Z,2.03
2022-08-08T17:47:23.118Z,1.90
2022-08-08T17:49:52.674Z,2.10
2022-08-08T17:52:23.185Z,2.38
2022-08-08T17:54:56.418Z,2.35
2022-08-08T17:57:24.390Z,2.15
2022-08-08T18:00:01.617Z,2.03
2022-08-08T18:02:29.839Z,2.03
2022-08-08T18:05:00.618Z,1.92
2022-08-08T18:08:00.831Z,2.00
2022-08-08T18:10:17.946Z,2.70
2022-08-08T18:15:28.438Z,2.25
2022-08-08T18:18:09.514Z,1.97
2022-08-08T18:23:33.425Z,1.83
2022-08-08T18:26:05.148Z,1.95
2022-08-08T18:28:34.888Z,1.98
2022-08-08T18:31:23.478Z,2.17
2022-08-08T18:36:33.378Z,2.40
2022-08-08T18:44:36.323Z,1.92
2022-08-08T18:47:03.873Z,2.25
2022-08-08T18:49:58.575Z,1.92
2022-08-08T18:52:34.596Z,2.00
2022-08-08T18:55:10.670Z,2.20
2022-08-08T18:57:44.709Z,2.33
2022-08-08T19:00:16.659Z,2.38
2022-08-08T19:02:48.520Z,2.10
2022-08-08T19:05:22.313Z,2.10
2022-08-08T19:07:52.378Z,2.13
2022-08-08T19:10:19.538Z,2.13
2022-08-08T19:12:49.949Z,2.50
2022-08-08T19:15:21.695Z,4.15
2022-08-08T19:18:31.141Z,2.00
2022-08-08T19:20:40.306Z,2.33
2022-08-08T19:23:10.085Z,1.95
2022-08-08T19:26:20.127Z,2.15
2022-08-08T19:28:24.769Z,2.50
2022-08-08T19:31:03.918Z,2.20
2022-08-08T19:33:51.703Z,2.40
2022-08-08T19:36:25.301Z,2.40
2022-08-08T19:38:55.806Z,2.20
2022-08-08T19:41:26.449Z,2.40
2022-08-08T19:44:02.174Z,2.42
2022-08-08T19:46:33.543Z,2.30
2022-08-08T19:49:01.300Z,3.03
2022-08-08T19:51:33.993Z,2.28
2022-08-08T19:54:01.935Z,2.22
2022-08-08T19:56:40.905Z,2.45
2022-08-08T19:59:09.245Z,2.25
2022-08-08T20:02:01.168Z,2.50
2022-08-08T20:04:23.925Z,2.30
2022-08-08T20:06:51.073Z,2.40
2022-08-08T20:09:22.993Z,2.25
2022-08-08T20:11:50.568Z,2.10
2022-08-08T20:14:34.000Z,2.20
2022-08-08T20:19:34.593Z,2.58
2022-08-08T20:22:20.882Z,2.70
2022-08-08T20:24:56.921Z,2.60
2022-08-08T20:27:27.262Z,2.63
2022-08-08T20:33:00.825Z,1.90
2022-08-08T20:35:58.959Z,2.15
2022-08-08T20:38:21.988Z,2.10
2022-08-08T20:40:59.367Z,2.10
2022-08-08T20:43:43.840Z,2.20
2022-08-08T20:46:12.930Z,1.98
2022-08-08T20:48:39.701Z,3.22
2022-08-08T20:51:07.872Z,2.38
2022-08-08T20:53:59.091Z,2.70
2022-08-08T20:56:35.184Z,2.17
2022-08-08T20:59:05.925Z,2.20
2022-08-08T21:02:06.850Z,2.47
2022-08-08T21:04:20.653Z,2.45
2022-08-08T21:06:52.655Z,1.80
2022-08-08T21:09:21.648Z,2.30
2022-08-08T21:11:51.689Z,1.95
2022-08-08T21:14:33.482Z,2.05
2022-08-08T21:17:06.298Z,2.28
2022-08-08T21:19:44.363Z,2.00
2022-08-08T21:22:13.763Z,2.08
2022-08-08T21:24:42.023Z,2.35
2022-08-08T21:28:05.242Z,2.13
2022-08-08T21:30:09.581Z,2.60
2022-08-08T21:32:44.230Z,2.00
2022-08-08T21:36:16.325Z,2.55
2022-08-08T21:38:04.030Z,2.22
2022-08-08T21:40:32.558Z,2.50
2022-08-08T21:42:59.598Z,2.10
2022-08-08T21:48:01.836Z,2.08
2022-08-08T21:48:20.223Z,2.25
2022-08-08T21:56:19.880Z,2.20
2022-08-08T21:58:58.609Z,2.50
2022-08-08T22:01:39.394Z,2.55
2022-08-08T22:04:11.046Z,2.22
2022-08-08T22:06:40.770Z,2.13
2022-08-08T22:09:08.976Z,2.33
2022-08-08T22:11:58.884Z,2.40
2022-08-08T22:14:26.682Z,2.25
2022-08-08T22:34:13.258Z,3.05
2022-08-08T22:36:13.786Z,2.45
2022-08-08T22:38:48.235Z,3.13
2022-08-08T22:41:21.214Z,2.17
2022-08-08T22:44:02.214Z,2.60
2022-08-08T22:46:33.017Z,2.60
2022-08-08T22:49:00.556Z,2.50
2022-08-08T22:51:29.130Z,2.22
2022-08-08T22:54:32.154Z,2.35
2022-08-08T22:56:47.484Z,2.50
2022-08-08T22:59:18.539Z,2.55
2022-08-08T23:02:02.552Z,2.47
2022-08-08T23:04:31.870Z,2.45
2022-08-08T23:07:02.375Z,2.70
2022-08-08T23:09:31.107Z,2.50
2022-08-08T23:12:28.076Z,2.50
2022-08-08T23:14:56.355Z,2.80
2022-08-08T23:17:29.900Z,2.20
2022-08-08T23:19:57.013Z,2.40
2022-08-08T23:22:23.915Z,2.40
2022-08-08T23:24:51.024Z,2.53
2022-08-08T23:27:39.345Z,2.50
2022-08-08T23:30:06.094Z,2.53
2022-08-08T23:32:41.726Z,2.70
2022-08-08T23:35:12.462Z,2.60
2022-08-08T23:38:01.548Z,2.90
2022-08-08T23:40:30.764Z,3.10
2022-08-08T23:42:57.659Z,2.67
2022-08-08T23:49:00.922Z,3.30
2022-08-08T23:49:02.868Z,2.47
2022-08-08T23:50:58.641Z,2.95
2022-08-08T23:54:06.211Z,2.72
2022-08-08T23:56:12.474Z,2.28
2022-08-08T23:58:39.416Z,2.50
